Time;durP1;ratioP1;P1;durP2;ratioP2;P2;SDS_P1;SDS_P2;PMS_P1;PMS_P2;Temp;Humidity;BMP_temperature;BMP_pressure;BME280_temperature;BME280_humidity;BME280_pressure;Samples;Min_cycle;Max_cycle;Signal;HPM_P1;HPM_P2
2024/03/02 00:00:11;;;;;;;9.47;4.57;;;5.80;99.90;;;;;;5053900;28;20021;-77
2024/03/02 00:02:47;;;;;;;10.77;4.90;;;5.80;99.90;;;;;;5054821;28;20063;-77
2024/03/02 00:05:15;;;;;;;8.13;4.47;;;5.80;99.90;;;;;;5054753;28;20482;-77
2024/03/02 00:07:46;;;;;;;8.67;4.77;;;5.80;99.90;;;;;;5054788;28;20112;-77
2024/03/02 00:10:16;;;;;;;9.27;4.57;;;5.90;99.90;;;;;;5054815;28;20048;-77
2024/03/02 00:12:42;;;;;;;9.83;4.77;;;6.00;99.90;;;;;;5054915;28;20028;-75
2024/03/02 00:15:36;;;;;;;7.95;4.72;;;6.00;99.90;;;;;;5053751;28;20029;-76
2024/03/02 00:18:02;;;;;;;9.93;4.90;;;5.90;99.90;;;;;;5053387;28;20132;-76
2024/03/02 00:20:28;;;;;;;9.93;4.67;;;5.90;99.90;;;;;;5055640;28;20501;-76
2024/03/02 00:23:03;;;;;;;9.57;5.13;;;5.70;99.90;;;;;;5054664;28;20100;-76
2024/03/02 00:25:38;;;;;;;9.63;4.80;;;5.70;99.90;;;;;;5055621;28;20040;-77
2024/03/02 00:28:07;;;;;;;8.93;4.90;;;5.60;99.90;;;;;;5053639;28;20083;-77
2024/03/02 00:30:54;;;;;;;8.70;4.80;;;5.60;99.90;;;;;;5054261;28;20086;-78
2024/03/02 00:33:21;;;;;;;10.57;5.03;;;5.50;99.90;;;;;;5055283;28;20059;-78
2024/03/02 00:35:46;;;;;;;7.97;4.50;;;5.50;99.90;;;;;;5055251;28;20477;-76
2024/03/02 00:38:15;;;;;;;7.95;4.35;;;5.50;99.90;;;;;;5054133;28;20063;-78
2024/03/02 00:40:41;;;;;;;7.17;4.70;;;5.60;99.90;;;;;;5054279;28;20025;-78
2024/03/02 00:43:25;;;;;;;8.67;4.40;;;5.50;99.90;;;;;;5053257;28;20089;-78
2024/03/02 00:45:51;;;;;;;8.32;4.75;;;5.50;99.90;;;;;;5052430;28;20072;-78
2024/03/02 00:48:16;;;;;;;10.07;4.63;;;5.50;99.90;;;;;;5054549;28;20021;-78
2024/03/02 00:50:42;;;;;;;6.93;3.93;;;5.50;99.90;;;;;;5053979;28;20029;-78
2024/03/02 00:53:11;;;;;;;7.40;4.73;;;5.50;99.90;;;;;;5054411;28;20036;-78
2024/03/02 00:55:38;;;;;;;11.13;5.70;;;5.50;99.90;;;;;;5055062;28;20025;-78
2024/03/02 00:58:03;;;;;;;7.10;4.17;;;5.50;99.90;;;;;;5054359;28;20032;-78
2024/03/02 01:00:29;;;;;;;11.60;4.90;;;5.50;99.90;;;;;;5054880;28;20025;-77
2024/03/02 01:02:54;;;;;;;7.90;4.43;;;5.60;99.90;;;;;;5052961;28;20021;-77
2024/03/02 01:05:20;;;;;;;8.23;4.77;;;5.60;99.90;;;;;;5053773;28;20044;-78
2024/03/02 01:07:46;;;;;;;8.33;4.93;;;5.60;99.90;;;;;;5053600;28;20075;-75
2024/03/02 01:10:12;;;;;;;8.77;4.17;;;5.60;99.90;;;;;;5053374;28;20553;-78
2024/03/02 01:12:38;;;;;;;7.43;4.53;;;5.60;99.90;;;;;;5053806;28;20116;-78
2024/03/02 01:15:05;;;;;;;7.27;4.27;;;5.50;99.90;;;;;;5054057;28;20363;-78
2024/03/02 01:17:32;;;;;;;9.27;4.40;;;5.40;99.90;;;;;;5054929;28;20021;-78
2024/03/02 01:19:57;;;;;;;11.30;4.77;;;5.30;99.90;;;;;;5052765;28;20112;-78
2024/03/02 01:22:25;;;;;;;8.93;4.20;;;5.30;99.90;;;;;;5054630;28;20025;-77
2024/03/02 01:24:51;;;;;;;6.85;4.60;;;5.30;99.90;;;;;;5052507;28;20025;-76
2024/03/02 01:27:17;;;;;;;9.95;5.20;;;5.30;99.90;;;;;;5053324;28;20064;-77
2024/03/02 01:29:42;;;;;;;7.30;4.00;;;5.30;99.90;;;;;;5054148;28;20036;-78
2024/03/02 01:32:08;;;;;;;7.53;4.40;;;5.30;99.90;;;;;;5052626;28;20041;-77
2024/03/02 01:34:33;;;;;;;8.13;4.30;;;5.30;99.90;;;;;;5053274;28;20020;-77
2024/03/02 01:36:59;;;;;;;6.97;4.20;;;5.20;99.90;;;;;;5052308;28;20029;-78
2024/03/02 01:39:24;;;;;;;9.87;4.73;;;5.10;99.90;;;;;;5052981;28;20078;-78
2024/03/02 01:41:50;;;;;;;9.13;4.57;;;5.10;99.90;;;;;;5052577;28;20064;-76
2024/03/02 01:44:16;;;;;;;8.03;4.47;;;5.00;99.90;;;;;;5053851;28;20029;-77
2024/03/02 01:46:42;;;;;;;9.10;4.40;;;4.90;99.90;;;;;;5054013;28;20244;-77
2024/03/02 01:49:08;;;;;;;6.83;4.10;;;4.90;99.90;;;;;;5053573;28;20040;-78
2024/03/02 01:51:33;;;;;;;7.57;4.57;;;4.90;99.90;;;;;;5054227;28;20047;-78
2024/03/02 01:53:59;;;;;;;7.57;4.30;;;4.90;99.90;;;;;;5053409;28;20036;-78
2024/03/02 01:56:25;;;;;;;9.53;4.67;;;4.80;99.90;;;;;;5052988;28;20471;-78
2024/03/02 01:58:50;;;;;;;6.17;4.10;;;4.80;99.90;;;;;;5053329;28;20054;-76
2024/03/02 02:01:16;;;;;;;7.87;4.20;;;4.80;99.90;;;;;;5052624;28;20438;-78
2024/03/02 02:03:43;;;;;;;8.20;4.00;;;4.70;99.90;;;;;;5052675;28;20148;-79
2024/03/02 02:06:09;;;;;;;10.00;4.73;;;4.70;99.90;;;;;;5052695;28;20044;-78
2024/03/02 02:08:37;;;;;;;7.63;4.30;;;4.70;99.90;;;;;;5053617;28;20025;-78
2024/03/02 02:11:02;;;;;;;7.70;4.77;;;4.70;99.90;;;;;;5052924;28;20100;-78
2024/03/02 02:13:28;;;;;;;9.10;4.50;;;4.60;99.90;;;;;;5053195;28;20057;-77
2024/03/02 02:15:54;;;;;;;7.30;4.20;;;4.70;99.90;;;;;;5052725;28;20033;-77
2024/03/02 02:18:19;;;;;;;7.47;4.07;;;4.60;99.90;;;;;;5053623;28;20513;-78
2024/03/02 02:20:45;;;;;;;8.97;4.43;;;4.60;99.90;;;;;;5052362;28;20116;-78
2024/03/02 02:23:10;;;;;;;8.57;4.27;;;4.70;99.90;;;;;;5052847;28;20105;-77
2024/03/02 02:25:36;;;;;;;8.57;4.10;;;4.70;99.90;;;;;;5053172;28;20548;-77
2024/03/02 02:28:02;;;;;;;5.83;3.67;;;4.60;99.90;;;;;;5051038;28;20203;-76
2024/03/02 02:30:30;;;;;;;7.93;4.30;;;4.60;99.90;;;;;;5053051;28;20028;-77
2024/03/02 02:32:56;;;;;;;9.27;4.90;;;4.60;99.90;;;;;;5051217;28;20028;-77
2024/03/02 02:35:24;;;;;;;8.17;4.17;;;4.60;99.90;;;;;;5052876;28;20031;-77
2024/03/02 02:37:50;;;;;;;9.20;4.60;;;4.60;99.90;;;;;;5051963;28;20029;-77
2024/03/02 02:40:16;;;;;;;8.13;4.33;;;4.50;99.90;;;;;;5051357;28;20029;-77
2024/03/02 02:42:42;;;;;;;8.77;4.23;;;4.40;99.90;;;;;;5053158;28;20035;-77
2024/03/02 02:45:08;;;;;;;8.23;4.23;;;4.40;99.90;;;;;;5050931;28;20142;-77
2024/03/02 02:47:35;;;;;;;7.23;4.33;;;4.30;99.90;;;;;;5051764;28;20068;-77
2024/03/02 02:50:02;;;;;;;7.17;4.20;;;4.40;99.90;;;;;;5051131;28;20021;-77
2024/03/02 02:52:33;;;;;;;10.37;4.43;;;4.30;99.90;;;;;;5052840;28;20112;-77
2024/03/02 02:54:58;;;;;;;7.67;3.73;;;4.30;99.90;;;;;;5051055;28;20455;-77
2024/03/02 02:57:24;;;;;;;8.47;4.30;;;4.20;99.90;;;;;;5052661;28;20029;-77
2024/03/02 02:59:49;;;;;;;6.13;3.90;;;4.10;99.90;;;;;;5051716;28;20437;-77
2024/03/02 03:02:15;;;;;;;8.57;4.17;;;4.20;99.90;;;;;;5050537;28;20024;-76
2024/03/02 03:04:41;;;;;;;7.63;4.00;;;4.10;99.90;;;;;;5051732;28;20032;-78
2024/03/02 03:07:06;;;;;;;10.20;3.83;;;4.10;99.90;;;;;;5050759;28;20036;-78
2024/03/02 03:09:32;;;;;;;7.43;3.90;;;4.10;99.90;;;;;;5050753;28;20442;-78
2024/03/02 03:11:58;;;;;;;7.63;3.80;;;4.20;99.90;;;;;;5050743;28;20025;-77
2024/03/02 03:14:23;;;;;;;7.70;4.13;;;4.20;99.90;;;;;;5052595;28;20363;-78
2024/03/02 03:16:50;;;;;;;7.60;4.67;;;4.30;99.90;;;;;;5052796;28;20040;-78
2024/03/02 03:19:15;;;;;;;7.63;4.03;;;4.30;99.90;;;;;;5051907;28;20225;-78
2024/03/02 03:21:42;;;;;;;7.30;4.23;;;4.20;99.90;;;;;;5051395;28;20049;-78
2024/03/02 03:24:08;;;;;;;8.17;4.10;;;4.00;99.90;;;;;;5050963;28;20078;-77
2024/03/02 03:26:36;;;;;;;6.87;3.73;;;4.00;99.90;;;;;;5051587;28;20036;-77
2024/03/02 03:29:02;;;;;;;5.43;3.43;;;4.10;99.90;;;;;;5050760;28;20025;-77
2024/03/02 03:31:28;;;;;;;6.73;3.70;;;4.10;99.90;;;;;;5052789;28;20450;-78
2024/03/02 03:33:54;;;;;;;5.53;3.60;;;4.10;99.90;;;;;;5051227;28;20021;-75
2024/03/02 03:36:19;;;;;;;6.30;3.87;;;4.10;99.90;;;;;;5050720;28;20032;-77
2024/03/02 03:38:45;;;;;;;6.00;3.77;;;4.10;99.90;;;;;;5052413;28;20086;-77
2024/03/02 03:41:11;;;;;;;6.27;3.90;;;4.00;99.90;;;;;;5051333;28;20034;-77
2024/03/02 03:43:37;;;;;;;6.37;4.13;;;3.90;99.90;;;;;;5052489;28;20033;-77
2024/03/02 03:46:03;;;;;;;6.43;3.43;;;4.00;99.90;;;;;;5050625;28;20064;-77
2024/03/02 03:48:30;;;;;;;6.47;3.50;;;4.00;99.90;;;;;;5052481;28;20018;-77
2024/03/02 03:50:56;;;;;;;7.67;3.70;;;4.00;99.90;;;;;;5052053;28;20021;-76
2024/03/02 03:53:22;;;;;;;7.30;3.50;;;3.90;99.90;;;;;;5050660;28;20029;-79
2024/03/02 03:55:49;;;;;;;5.63;4.07;;;3.90;99.90;;;;;;5051643;28;20036;-79
2024/03/02 03:58:16;;;;;;;6.53;3.30;;;3.90;99.90;;;;;;5050708;28;20025;-79
2024/03/02 04:00:42;;;;;;;4.73;3.23;;;3.80;99.90;;;;;;5052066;28;20031;-77
2024/03/02 04:03:08;;;;;;;9.17;3.10;;;3.70;99.90;;;;;;5049967;28;20026;-78
2024/03/02 04:05:33;;;;;;;7.10;3.30;;;3.80;99.90;;;;;;5051399;28;20033;-78
2024/03/02 04:08:00;;;;;;;5.73;3.30;;;3.80;99.90;;;;;;5051783;28;20067;-75
2024/03/02 04:10:25;;;;;;;5.03;2.90;;;3.90;99.90;;;;;;5050963;28;20071;-77
2024/03/02 04:12:51;;;;;;;4.37;3.10;;;3.80;99.90;;;;;;5050432;28;20029;-77
2024/03/02 04:15:18;;;;;;;6.23;3.33;;;3.80;99.90;;;;;;5050514;28;20056;-78
2024/03/02 04:17:44;;;;;;;6.50;3.20;;;3.80;99.90;;;;;;5051254;28;20025;-77
2024/03/02 04:20:12;;;;;;;4.80;3.20;;;3.70;99.90;;;;;;5051132;28;20029;-77
2024/03/02 04:22:38;;;;;;;6.47;3.03;;;3.80;99.90;;;;;;5055698;28;20470;-77
2024/03/02 04:25:04;;;;;;;5.00;2.73;;;3.70;99.90;;;;;;5053574;28;20025;-77
2024/03/02 04:27:31;;;;;;;7.97;3.00;;;3.80;99.90;;;;;;5054774;28;20040;-79
2024/03/02 04:29:57;;;;;;;7.50;3.27;;;3.90;99.90;;;;;;5054578;28;20025;-77
2024/03/02 04:32:23;;;;;;;7.43;3.20;;;3.70;99.90;;;;;;5055321;28;20377;-77
2024/03/02 04:34:48;;;;;;;5.80;3.20;;;3.70;99.90;;;;;;5054699;28;20406;-77
2024/03/02 04:37:14;;;;;;;6.17;3.20;;;3.70;99.90;;;;;;5053925;28;20029;-77
2024/03/02 04:39:40;;;;;;;5.13;3.47;;;3.70;99.90;;;;;;5054623;28;20036;-77
2024/03/02 04:42:05;;;;;;;5.73;3.20;;;3.70;99.90;;;;;;5053456;28;20055;-76
2024/03/02 04:44:31;;;;;;;6.20;3.43;;;3.80;99.90;;;;;;5055288;28;20096;-77
2024/03/02 04:46:57;;;;;;;5.33;2.83;;;3.80;99.90;;;;;;5054037;28;20029;-77
2024/03/02 04:49:23;;;;;;;7.70;3.63;;;3.80;99.90;;;;;;5054682;28;20036;-78
2024/03/02 04:51:49;;;;;;;6.30;3.50;;;3.60;99.90;;;;;;5055509;28;20025;-77
2024/03/02 04:54:14;;;;;;;4.90;2.97;;;3.60;99.90;;;;;;5053292;28;20029;-77
2024/03/02 04:56:44;;;;;;;7.30;3.93;;;3.70;99.90;;;;;;5053965;28;20037;-77
2024/03/02 04:59:10;;;;;;;6.67;3.37;;;3.80;99.90;;;;;;5053134;28;20029;-77
2024/03/02 05:01:36;;;;;;;4.37;2.90;;;3.90;99.90;;;;;;5055008;28;20052;-78
2024/03/02 05:04:01;;;;;;;5.87;3.00;;;3.70;99.90;;;;;;5053874;28;20021;-76
2024/03/02 05:06:27;;;;;;;7.47;3.60;;;3.70;99.90;;;;;;5054630;28;20379;-78
2024/03/02 05:08:53;;;;;;;4.90;3.00;;;3.70;99.90;;;;;;5055171;28;20029;-78
2024/03/02 05:14:03;;;;;;;11.60;3.20;;;3.60;99.90;;;;;;5054367;28;20147;-76
2024/03/02 05:16:28;;;;;;;5.57;3.50;;;3.60;99.90;;;;;;5053650;28;20021;-78
2024/03/02 05:18:54;;;;;;;4.33;3.07;;;3.50;99.90;;;;;;5053346;28;20036;-77
2024/03/02 05:21:19;;;;;;;4.03;3.10;;;3.50;99.90;;;;;;5052792;28;20025;-78
2024/03/02 05:23:45;;;;;;;6.30;3.30;;;3.40;99.90;;;;;;5053287;28;20047;-77
2024/03/02 05:26:12;;;;;;;5.97;3.20;;;3.30;99.90;;;;;;5053642;28;20033;-78
2024/03/02 05:28:38;;;;;;;5.83;3.23;;;3.30;99.90;;;;;;5054577;28;20021;-78
2024/03/02 05:31:04;;;;;;;5.47;2.73;;;3.30;99.90;;;;;;5053538;28;20528;-76
2024/03/02 05:33:31;;;;;;;5.93;3.47;;;3.30;99.90;;;;;;5052607;28;20025;-78
2024/03/02 05:35:57;;;;;;;6.33;2.67;;;3.40;99.90;;;;;;5054330;28;20032;-78
2024/03/02 05:38:22;;;;;;;6.60;2.90;;;3.40;99.90;;;;;;5053552;28;20116;-77
2024/03/02 05:40:48;;;;;;;6.30;3.27;;;3.50;99.90;;;;;;5053118;28;20017;-77
2024/03/02 05:43:14;;;;;;;4.47;2.90;;;3.50;99.90;;;;;;5052073;28;20025;-76
2024/03/02 05:45:39;;;;;;;6.17;3.43;;;3.50;99.90;;;;;;5052598;28;20053;-77
2024/03/02 05:48:07;;;;;;;6.43;3.20;;;3.60;99.90;;;;;;5052241;28;20529;-76
2024/03/02 05:50:33;;;;;;;6.50;3.10;;;3.60;99.90;;;;;;5054189;28;20025;-78
2024/03/02 05:52:58;;;;;;;6.87;2.87;;;3.50;99.90;;;;;;5053814;28;20459;-76
2024/03/02 05:55:24;;;;;;;5.97;3.00;;;3.50;99.90;;;;;;5052207;28;20473;-78
2024/03/02 06:00:48;;;;;;;7.10;2.80;;;3.50;99.90;;;;;;5041407;28;20462;-77
2024/03/02 06:03:14;;;;;;;6.00;2.90;;;3.40;99.90;;;;;;5051230;28;20046;-76
2024/03/02 06:05:40;;;;;;;5.40;2.93;;;3.40;99.90;;;;;;5051724;28;20045;-76
2024/03/02 06:08:07;;;;;;;5.90;2.90;;;3.40;99.90;;;;;;5051532;28;20029;-75
2024/03/02 06:10:32;;;;;;;4.90;3.10;;;3.40;99.90;;;;;;5051685;28;20080;-77
2024/03/02 06:12:59;;;;;;;4.60;2.80;;;3.40;99.90;;;;;;5052595;28;20020;-76
2024/03/02 06:15:24;;;;;;;5.83;2.47;;;3.40;99.90;;;;;;5050492;28;20170;-77
2024/03/02 06:17:50;;;;;;;4.50;2.80;;;3.40;99.90;;;;;;5053143;28;20104;-77
2024/03/02 06:20:15;;;;;;;6.37;3.13;;;3.40;99.90;;;;;;5051581;28;20036;-77
2024/03/02 06:22:41;;;;;;;6.27;3.50;;;3.30;99.90;;;;;;5053314;28;20498;-77
2024/03/02 06:25:07;;;;;;;5.23;2.80;;;3.20;99.90;;;;;;5052849;28;20438;-75
2024/03/02 06:27:33;;;;;;;5.20;3.20;;;3.20;99.90;;;;;;5051790;28;20047;-77
2024/03/02 06:29:58;;;;;;;5.37;2.93;;;3.30;99.90;;;;;;5051982;28;20115;-77
2024/03/02 06:32:25;;;;;;;5.13;2.63;;;3.30;99.90;;;;;;5052623;28;20021;-77
2024/03/02 06:34:50;;;;;;;5.73;2.73;;;3.30;99.90;;;;;;5051952;28;20116;-77
2024/03/02 06:37:16;;;;;;;5.20;2.70;;;3.30;99.90;;;;;;5051207;28;20067;-77
2024/03/02 06:39:41;;;;;;;5.83;3.00;;;3.30;99.90;;;;;;5052962;28;20021;-77
2024/03/02 06:42:07;;;;;;;3.87;2.47;;;3.30;99.90;;;;;;5051388;28;20512;-75
2024/03/02 06:44:33;;;;;;;4.33;2.60;;;3.30;99.90;;;;;;5051316;28;20459;-78
2024/03/02 06:46:59;;;;;;;6.37;2.70;;;3.30;99.90;;;;;;5051721;28;20037;-78
2024/03/02 06:49:24;;;;;;;4.37;2.70;;;3.40;99.90;;;;;;5052454;28;20800;-79
2024/03/02 06:51:50;;;;;;;4.60;2.80;;;3.40;99.90;;;;;;5052033;28;20086;-78
2024/03/02 06:54:16;;;;;;;3.93;3.00;;;3.40;99.90;;;;;;5051254;28;20470;-78
2024/03/02 06:56:41;;;;;;;4.30;2.63;;;3.40;99.90;;;;;;5053259;28;20029;-79
2024/03/02 06:59:07;;;;;;;4.57;2.90;;;3.40;99.90;;;;;;5051875;28;20450;-75
2024/03/02 07:01:32;;;;;;;8.73;3.00;;;3.40;99.90;;;;;;5051639;28;20347;-78
2024/03/02 07:03:58;;;;;;;4.27;2.80;;;3.40;99.90;;;;;;5052125;28;20044;-78
2024/03/02 07:06:24;;;;;;;4.87;2.57;;;3.40;99.90;;;;;;5052307;28;20033;-77
2024/03/02 07:08:50;;;;;;;4.40;2.70;;;3.30;99.90;;;;;;5051941;28;20028;-78
2024/03/02 07:11:15;;;;;;;4.30;2.90;;;3.40;99.90;;;;;;5050932;28;20077;-77
2024/03/02 07:13:41;;;;;;;5.17;2.90;;;3.40;99.90;;;;;;5051357;28;20035;-77
2024/03/02 07:16:27;;;;;;;5.13;2.47;;;3.40;99.90;;;;;;5051848;28;20037;-77
2024/03/02 07:18:55;;;;;;;4.37;2.80;;;3.40;99.90;;;;;;5052511;28;20063;-77
2024/03/02 07:21:22;;;;;;;5.13;2.80;;;3.40;99.90;;;;;;5051855;28;20344;-78
2024/03/02 07:23:48;;;;;;;5.23;2.93;;;3.40;99.90;;;;;;5052749;28;20048;-78
2024/03/02 07:26:14;;;;;;;4.33;2.73;;;3.40;99.90;;;;;;5050498;28;20462;-77
2024/03/02 07:28:41;;;;;;;5.70;2.70;;;3.50;99.90;;;;;;5051504;28;20044;-77
2024/03/02 07:31:07;;;;;;;6.57;2.80;;;3.50;99.90;;;;;;5052387;28;20425;-79
2024/03/02 07:33:33;;;;;;;5.07;2.87;;;3.60;99.90;;;;;;5050769;28;20063;-79
2024/03/02 07:36:00;;;;;;;5.13;3.07;;;3.70;99.90;;;;;;5051458;28;20029;-79
2024/03/02 07:38:26;;;;;;;4.83;3.10;;;3.80;99.90;;;;;;5051563;28;20029;-76
2024/03/02 07:40:55;;;;;;;5.10;2.90;;;3.90;99.90;;;;;;5052568;28;20056;-77
2024/03/02 07:43:21;;;;;;;5.40;3.50;;;4.00;99.90;;;;;;5051811;28;20039;-77
2024/03/02 07:45:48;;;;;;;4.27;3.10;;;4.10;99.90;;;;;;5052258;28;20136;-78
2024/03/02 07:48:14;;;;;;;6.30;3.43;;;4.20;99.90;;;;;;5051674;28;20115;-78
2024/03/02 07:50:40;;;;;;;4.63;2.90;;;4.20;99.90;;;;;;5051224;28;20029;-77
2024/03/02 07:53:06;;;;;;;4.30;2.90;;;4.30;99.90;;;;;;5052054;28;20454;-77
2024/03/02 07:55:31;;;;;;;5.33;3.13;;;4.50;99.90;;;;;;5050155;28;20025;-77
2024/03/02 07:57:57;;;;;;;4.83;2.90;;;4.60;99.90;;;;;;5054493;28;20079;-77
2024/03/02 08:00:23;;;;;;;3.73;2.73;;;4.70;99.90;;;;;;5053743;28;20082;-77
2024/03/02 08:02:50;;;;;;;6.80;2.93;;;4.70;99.90;;;;;;5054786;28;20046;-77
2024/03/02 08:05:16;;;;;;;5.63;3.20;;;4.80;99.90;;;;;;5055168;28;20075;-76
2024/03/02 08:07:44;;;;;;;4.83;3.00;;;4.90;99.90;;;;;;5054711;28;20534;-78
2024/03/02 08:10:10;;;;;;;9.47;3.70;;;5.00;99.90;;;;;;5055722;28;20100;-77
2024/03/02 08:12:35;;;;;;;4.30;2.73;;;5.10;99.90;;;;;;5053388;28;20136;-76
2024/03/02 08:15:01;;;;;;;7.10;3.20;;;5.20;99.90;;;;;;5054351;28;20041;-77
2024/03/02 08:17:27;;;;;;;6.60;3.20;;;5.20;99.90;;;;;;5054681;28;20049;-76
2024/03/02 08:19:53;;;;;;;6.40;2.80;;;5.30;99.90;;;;;;5054536;28;20025;-77
2024/03/02 08:22:19;;;;;;;6.33;3.10;;;5.40;99.90;;;;;;5053952;28;20359;-78
2024/03/02 08:24:45;;;;;;;8.63;2.93;;;5.50;99.90;;;;;;5054744;28;20021;-78
2024/03/02 08:27:12;;;;;;;6.10;2.80;;;5.50;99.90;;;;;;5055739;28;20064;-78
2024/03/02 08:29:38;;;;;;;5.13;2.90;;;5.70;99.90;;;;;;5054256;28;20020;-78
2024/03/02 08:32:04;;;;;;;5.47;3.00;;;5.60;99.90;;;;;;5054218;28;20028;-76
2024/03/02 08:34:30;;;;;;;4.97;2.63;;;5.70;99.90;;;;;;5053263;28;20029;-77
2024/03/02 08:36:55;;;;;;;4.57;2.60;;;5.90;99.90;;;;;;5054895;28;20055;-77
2024/03/02 08:39:21;;;;;;;7.37;3.17;;;6.00;99.90;;;;;;5053319;28;20029;-77
2024/03/02 08:41:47;;;;;;;4.57;2.57;;;6.00;99.90;;;;;;5054110;28;20046;-78
2024/03/02 08:44:13;;;;;;;5.43;3.17;;;6.10;99.90;;;;;;5055005;28;20371;-75
2024/03/02 08:46:40;;;;;;;4.37;2.83;;;6.20;99.90;;;;;;5053402;28;20045;-77
2024/03/02 08:49:06;;;;;;;3.20;2.40;;;6.20;99.90;;;;;;5070620;28;20057;-77
2024/03/02 08:51:32;;;;;;;3.80;2.40;;;6.30;99.90;;;;;;5054748;28;20025;-78
2024/03/02 08:53:58;;;;;;;5.47;2.97;;;6.30;99.90;;;;;;5053775;28;20094;-78
2024/03/02 08:56:24;;;;;;;3.93;2.73;;;6.30;99.90;;;;;;5051748;28;20056;-78
2024/03/02 08:58:51;;;;;;;5.03;2.70;;;6.40;99.90;;;;;;5054508;28;20074;-78
2024/03/02 09:01:17;;;;;;;4.83;2.70;;;6.50;99.90;;;;;;5053301;28;20028;-76
2024/03/02 09:03:44;;;;;;;3.27;2.30;;;6.60;99.90;;;;;;5043618;28;20071;-78
2024/03/02 09:06:10;;;;;;;4.67;3.10;;;6.60;99.90;;;;;;5054211;28;20021;-79
2024/03/02 09:08:36;;;;;;;4.73;2.40;;;6.80;99.90;;;;;;5051915;28;20108;-77
2024/03/02 09:11:03;;;;;;;2.80;2.30;;;6.80;99.90;;;;;;5053720;28;20076;-78
2024/03/02 09:13:29;;;;;;;4.10;2.30;;;6.90;99.90;;;;;;5052098;28;20079;-78
2024/03/02 09:15:55;;;;;;;3.00;2.00;;;6.90;99.90;;;;;;5054512;28;20037;-77
2024/03/02 09:18:20;;;;;;;3.87;1.93;;;6.90;99.90;;;;;;5053621;28;20021;-77
2024/03/02 09:20:46;;;;;;;3.60;1.87;;;7.10;99.90;;;;;;5052599;28;20052;-78
2024/03/02 09:23:11;;;;;;;3.83;1.70;;;7.10;99.90;;;;;;5052752;28;20110;-78
2024/03/02 09:25:37;;;;;;;3.05;1.80;;;7.20;99.90;;;;;;5053109;28;20021;-78
2024/03/02 09:28:03;;;;;;;3.13;1.88;;;7.20;99.90;;;;;;5054319;28;20040;-78
2024/03/02 09:30:29;;;;;;;3.08;1.85;;;7.20;99.90;;;;;;5053781;28;20035;-78
2024/03/02 09:32:54;;;;;;;3.70;2.10;;;7.20;99.90;;;;;;5052963;28;20493;-78
2024/03/02 09:35:20;;;;;;;2.55;1.65;;;7.30;99.90;;;;;;5051931;28;20025;-77
2024/03/02 09:37:46;;;;;;;2.88;1.70;;;7.40;99.90;;;;;;5052301;28;20036;-77
2024/03/02 09:40:12;;;;;;;1.98;1.77;;;7.50;99.90;;;;;;5053551;28;20025;-78
2024/03/02 09:42:39;;;;;;;2.97;1.80;;;7.50;99.90;;;;;;5051414;28;20112;-78
2024/03/02 09:45:06;;;;;;;2.63;1.52;;;7.50;99.90;;;;;;5051924;28;20410;-78
2024/03/02 09:47:31;;;;;;;3.42;1.70;;;7.60;99.90;;;;;;5051577;28;20033;-78
2024/03/02 09:49:57;;;;;;;2.47;1.98;;;7.70;99.90;;;;;;5053096;28;20027;-78
2024/03/02 09:52:23;;;;;;;3.70;1.45;;;7.70;99.90;;;;;;5051316;28;20025;-77
2024/03/02 09:54:49;;;;;;;3.42;1.88;;;7.80;99.90;;;;;;5052921;28;20079;-77
2024/03/02 09:57:15;;;;;;;3.47;1.40;;;7.80;99.90;;;;;;5052223;28;20033;-78
2024/03/02 09:59:41;;;;;;;3.33;1.80;;;7.90;99.90;;;;;;5050931;28;20025;-78
2024/03/02 10:02:07;;;;;;;4.00;1.90;;;8.00;99.90;;;;;;5052780;28;20028;-79
2024/03/02 10:04:35;;;;;;;3.03;1.77;;;8.10;99.90;;;;;;5051763;28;20021;-79
2024/03/02 10:07:15;;;;;;;3.80;1.73;;;8.00;99.90;;;;;;5053445;28;20454;-80
2024/03/02 10:09:42;;;;;;;3.38;1.90;;;8.10;99.90;;;;;;5052219;28;20029;-79
2024/03/02 10:12:09;;;;;;;4.43;2.00;;;8.20;99.90;;;;;;5052963;28;20029;-79
2024/03/02 10:14:35;;;;;;;2.17;1.50;;;8.30;99.90;;;;;;5052201;28;20117;-79
2024/03/02 10:17:08;;;;;;;2.95;1.77;;;8.40;99.90;;;;;;5055468;28;20056;-78
2024/03/02 10:19:35;;;;;;;5.95;2.05;;;8.40;99.90;;;;;;5052436;28;20083;-81
2024/03/02 10:22:05;;;;;;;4.65;2.30;;;8.50;99.90;;;;;;5069197;28;20025;-81
2024/03/02 10:24:39;;;;;;;3.00;1.60;;;8.50;99.90;;;;;;5068314;28;20028;-82
2024/03/02 10:27:17;;;;;;;2.55;1.70;;;8.60;99.90;;;;;;5069098;28;20079;-81
2024/03/02 10:29:46;;;;;;;4.00;1.92;;;8.70;99.90;;;;;;5051714;28;20045;-79
2024/03/02 10:32:12;;;;;;;4.40;1.75;;;8.70;99.90;;;;;;5053456;28;20040;-79
2024/03/02 10:34:40;;;;;;;4.15;1.80;;;8.70;99.90;;;;;;5068050;28;20406;-78
2024/03/02 10:37:07;;;;;;;3.28;2.00;;;8.70;99.90;;;;;;5068747;28;20037;-80
2024/03/02 10:39:35;;;;;;;4.30;1.83;;;8.80;99.90;;;;;;5050481;28;20037;-77
2024/03/02 10:42:03;;;;;;;2.53;1.80;;;8.90;99.90;;;;;;5050932;28;20035;-77
2024/03/02 10:44:30;;;;;;;4.20;2.17;;;9.00;99.90;;;;;;5051591;28;20481;-76
2024/03/02 10:46:56;;;;;;;2.80;1.90;;;9.10;99.90;;;;;;5052371;28;20470;-76
2024/03/02 10:49:23;;;;;;;3.58;1.67;;;9.10;99.90;;;;;;5051705;28;20033;-75
2024/03/02 10:51:49;;;;;;;3.17;2.03;;;9.20;99.90;;;;;;5067747;28;20493;-76
2024/03/02 10:54:15;;;;;;;5.10;1.92;;;9.20;99.90;;;;;;5052460;28;20029;-77
2024/03/02 10:56:44;;;;;;;2.95;1.50;;;9.20;99.90;;;;;;5067010;28;20029;-76
2024/03/02 10:59:13;;;;;;;3.42;1.80;;;9.30;99.90;;;;;;5067694;28;20025;-76
2024/03/02 11:01:39;;;;;;;4.85;2.13;;;9.40;99.90;;;;;;5066857;28;20045;-76
2024/03/02 11:04:09;;;;;;;2.38;1.80;;;9.40;99.90;;;;;;5050483;28;20096;-77
2024/03/02 11:06:38;;;;;;;3.67;1.45;;;9.60;99.90;;;;;;5051093;28;20539;-76
2024/03/02 11:09:10;;;;;;;2.58;1.40;;;9.60;99.90;;;;;;5067489;28;20032;-77
2024/03/02 11:11:43;;;;;;;4.30;1.63;;;9.70;99.90;;;;;;5051226;28;20100;-75
2024/03/02 11:14:16;;;;;;;2.75;1.70;;;9.70;99.90;;;;;;5052668;28;20375;-75
2024/03/02 11:16:43;;;;;;;1.85;1.30;;;9.70;99.90;;;;;;5052060;28;20047;-74
2024/03/02 11:19:12;;;;;;;7.65;1.80;;;9.80;99.90;;;;;;5071540;28;20021;-75
2024/03/02 11:21:38;;;;;;;3.45;1.30;;;9.80;99.90;;;;;;5070759;28;20115;-74
2024/03/02 11:24:27;;;;;;;1.92;1.23;;;9.90;99.90;;;;;;5070799;28;20024;-74
2024/03/02 11:26:52;;;;;;;3.20;1.40;;;9.90;99.90;;;;;;5070696;28;20169;-74
2024/03/02 11:29:37;;;;;;;2.55;1.40;;;9.90;99.90;;;;;;5070513;28;20127;-74
2024/03/02 11:32:18;;;;;;;2.63;1.10;;;9.90;99.90;;;;;;5074667;28;20028;-75
2024/03/02 11:34:51;;;;;;;2.72;0.88;;;9.90;99.90;;;;;;5075374;28;20630;-75
2024/03/02 11:37:20;;;;;;;1.23;0.70;;;9.90;99.90;;;;;;5074800;28;20115;-75
2024/03/02 11:39:49;;;;;;;0.70;0.60;;;10.00;99.90;;;;;;5073965;28;20031;-75
2024/03/02 11:42:15;;;;;;;1.42;0.90;;;10.10;99.90;;;;;;5074584;28;20054;-75
2024/03/02 11:44:48;;;;;;;1.35;0.98;;;10.30;99.90;;;;;;5073384;28;20048;-75
2024/03/02 11:47:16;;;;;;;4.35;0.80;;;10.30;99.90;;;;;;5068803;28;20071;-77
2024/03/02 11:49:45;;;;;;;1.15;0.68;;;10.50;99.90;;;;;;5054818;28;20541;-76
2024/03/02 11:52:13;;;;;;;1.38;0.68;;;10.50;99.90;;;;;;5054948;28;20036;-78
2024/03/02 11:54:46;;;;;;;1.05;0.75;;;10.60;99.90;;;;;;5054377;28;20036;-78
2024/03/02 11:57:16;;;;;;;1.23;0.60;;;10.60;99.90;;;;;;5054502;28;20032;-76
2024/03/02 11:59:42;;;;;;;2.78;0.63;;;10.70;99.90;;;;;;5054374;28;20028;-77
2024/03/02 12:02:15;;;;;;;1.27;0.70;;;10.80;99.90;;;;;;5054319;28;20373;-75
2024/03/02 12:04:42;;;;;;;1.15;0.95;;;10.80;99.90;;;;;;5053577;28;20284;-75
2024/03/02 12:07:09;;;;;;;1.33;0.60;;;10.80;99.90;;;;;;5053878;28;20485;-75
2024/03/02 12:09:34;;;;;;;1.33;0.70;;;10.90;99.90;;;;;;5053085;28;20021;-76
2024/03/02 12:12:03;;;;;;;1.10;0.55;;;11.00;99.90;;;;;;5070414;28;20041;-75
2024/03/02 12:14:30;;;;;;;0.65;0.45;;;11.00;99.90;;;;;;5054446;28;20033;-75
2024/03/02 12:16:58;;;;;;;0.95;0.40;;;11.20;99.90;;;;;;5056619;28;20060;-75
2024/03/02 12:19:25;;;;;;;1.33;0.50;;;11.40;99.90;;;;;;5073370;28;20028;-75
2024/03/02 12:21:50;;;;;;;2.00;0.40;;;11.70;99.90;;;;;;5074048;28;20028;-76
2024/03/02 12:24:16;;;;;;;0.60;0.40;;;11.90;99.90;;;;;;5075309;28;20365;-76
2024/03/02 12:26:42;;;;;;;1.50;0.50;;;12.10;99.90;;;;;;5074474;28;20640;-76
2024/03/02 12:29:08;;;;;;;0.65;0.50;;;12.20;99.90;;;;;;5073923;28;20030;-76
2024/03/02 12:31:35;;;;;;;1.00;0.50;;;12.30;99.90;;;;;;5069632;28;20056;-76
2024/03/02 12:34:01;;;;;;;0.63;0.40;;;12.50;99.90;;;;;;5053212;28;20017;-76
2024/03/02 12:36:27;;;;;;;0.52;0.50;;;12.70;99.90;;;;;;5053880;28;20044;-75
2024/03/02 12:38:54;;;;;;;0.60;0.38;;;12.90;99.90;;;;;;5053031;28;20061;-76
2024/03/02 12:41:20;;;;;;;1.45;0.60;;;13.10;99.90;;;;;;5054086;28;20025;-76
2024/03/02 12:43:46;;;;;;;1.60;0.80;;;13.50;99.90;;;;;;5052530;28;20060;-75
2024/03/02 12:46:11;;;;;;;0.75;0.57;;;13.70;99.90;;;;;;5052531;28;20140;-75
2024/03/02 12:48:40;;;;;;;0.82;0.70;;;13.90;99.90;;;;;;5052173;28;20493;-76
2024/03/02 12:51:06;;;;;;;0.70;0.70;;;14.20;99.90;;;;;;5052266;28;20501;-76
2024/03/02 12:53:32;;;;;;;1.90;0.80;;;14.50;99.90;;;;;;5051039;28;20033;-76
2024/03/02 12:55:58;;;;;;;1.10;0.68;;;14.70;99.70;;;;;;5051565;28;20032;-76
2024/03/02 12:58:24;;;;;;;1.25;0.65;;;15.00;98.90;;;;;;5054133;28;20033;-74